Time;durP1;ratioP1;P1;durP2;ratioP2;P2;SDS_P1;SDS_P2;PMS_P1;PMS_P2;Temp;Humidity;BMP_temperature;BMP_pressure;BME280_temperature;BME280_humidity;BME280_pressure;Samples;Min_cycle;Max_cycle;Signal;HPM_P1;HPM_P2
2023/09/11 00:02:16;;;;;;;5.22;2.13;;;;;;;;;;5064655;28;20049;-75
2023/09/11 00:04:47;;;;;;;6.82;2.00;;;;;;;;;;5063520;28;20063;-75
2023/09/11 00:07:17;;;;;;;4.97;1.60;;;;;;;;;;5064367;28;20423;-75
2023/09/11 00:09:48;;;;;;;4.57;2.05;;;;;;;;;;5064285;28;20033;-74
2023/09/11 00:12:19;;;;;;;3.90;1.83;;;;;;;;;;5064379;28;20089;-74
2023/09/11 00:14:49;;;;;;;3.65;2.00;;;;;;;;;;5064236;28;20060;-74
2023/09/11 00:17:20;;;;;;;7.10;2.30;;;;;;;;;;5064803;28;20479;-76
2023/09/11 00:19:51;;;;;;;5.30;1.85;;;;;;;;;;5064474;28;20053;-76
2023/09/11 00:22:21;;;;;;;6.53;2.38;;;;;;;;;;5064482;28;20052;-77
2023/09/11 00:24:52;;;;;;;5.65;2.28;;;;;;;;;;5064334;28;20064;-77
2023/09/11 00:27:23;;;;;;;7.72;2.15;;;;;;;;;;5064057;28;20051;-75
2023/09/11 00:29:54;;;;;;;4.90;1.90;;;;;;;;;;5062431;28;20044;-75
2023/09/11 00:32:25;;;;;;;2.95;2.05;;;;;;;;;;5064351;28;20068;-76
2023/09/11 00:34:55;;;;;;;5.05;2.22;;;;;;;;;;5064186;28;20051;-74
2023/09/11 00:37:25;;;;;;;7.40;1.95;;;;;;;;;;5063840;28;20063;-75
2023/09/11 00:39:57;;;;;;;6.53;2.13;;;;;;;;;;5063765;28;20056;-75
2023/09/11 00:42:27;;;;;;;3.83;2.45;;;;;;;;;;5063172;28;20048;-76
2023/09/11 00:44:58;;;;;;;14.20;9.98;;;;;;;;;;5060314;28;20512;-76
2023/09/11 00:47:28;;;;;;;9.00;6.05;;;;;;;;;;5063183;28;20051;-76
2023/09/11 00:50:01;;;;;;;15.15;6.57;;;;;;;;;;5062255;28;20542;-75
2023/09/11 00:52:32;;;;;;;11.65;5.68;;;;;;;;;;5064416;28;21124;-76
2023/09/11 00:55:04;;;;;;;11.55;3.83;;;;;;;;;;5063928;28;20056;-76
2023/09/11 00:57:34;;;;;;;6.30;3.67;;;;;;;;;;5063941;28;20515;-73
2023/09/11 01:00:06;;;;;;;4.35;3.20;;;;;;;;;;5063502;28;20495;-75
2023/09/11 01:02:38;;;;;;;7.38;3.42;;;;;;;;;;5062276;28;20056;-74
2023/09/11 01:05:11;;;;;;;9.63;3.70;;;;;;;;;;5062445;28;20051;-73
2023/09/11 01:07:42;;;;;;;5.38;3.13;;;;;;;;;;5062561;28;20060;-74
2023/09/11 01:10:12;;;;;;;10.68;3.20;;;;;;;;;;5062143;28;20056;-74
2023/09/11 01:12:42;;;;;;;5.63;2.30;;;;;;;;;;5062877;28;20049;-74
2023/09/11 01:15:13;;;;;;;7.43;2.50;;;;;;;;;;5061856;28;20585;-74
2023/09/11 01:17:55;;;;;;;5.47;2.70;;;;;;;;;;5063712;28;20044;-74
2023/09/11 01:21:13;;;;;;;8.02;2.60;;;;;;;;;;5062051;28;20444;-75
2023/09/11 01:24:01;;;;;;;6.93;2.17;;;;;;;;;;4980816;28;20061;-75
2023/09/11 01:26:32;;;;;;;4.03;2.38;;;;;;;;;;4980459;28;20065;-75
2023/09/11 01:29:13;;;;;;;3.30;2.28;;;;;;;;;;5040647;28;20063;-75
2023/09/11 01:31:44;;;;;;;10.20;2.60;;;;;;;;;;5061585;28;20519;-75
2023/09/11 01:34:15;;;;;;;7.47;3.55;;;;;;;;;;5063077;28;20032;-75
2023/09/11 01:36:45;;;;;;;7.85;2.63;;;;;;;;;;5061865;28;20521;-75
2023/09/11 01:39:17;;;;;;;7.28;2.88;;;;;;;;;;5062559;28;20059;-75
2023/09/11 01:41:48;;;;;;;5.65;2.58;;;;;;;;;;5060526;28;20048;-75
2023/09/11 01:44:30;;;;;;;9.50;2.53;;;;;;;;;;5061990;28;20052;-75
2023/09/11 01:47:02;;;;;;;5.43;2.72;;;;;;;;;;5063275;28;20040;-75
2023/09/11 01:49:36;;;;;;;4.95;2.72;;;;;;;;;;5062873;28;20040;-75
2023/09/11 01:52:11;;;;;;;7.25;2.65;;;;;;;;;;5062273;28;20052;-75
2023/09/11 01:54:42;;;;;;;4.57;2.47;;;;;;;;;;5060950;28;20558;-75
2023/09/11 01:57:14;;;;;;;7.38;2.80;;;;;;;;;;5045436;28;20507;-75
2023/09/11 01:59:45;;;;;;;6.13;2.35;;;;;;;;;;5061304;28;20391;-75
2023/09/11 02:02:15;;;;;;;12.70;3.38;;;;;;;;;;5060657;28;20049;-75
2023/09/11 02:04:45;;;;;;;8.30;3.40;;;;;;;;;;5062911;28;20059;-75
2023/09/11 02:07:16;;;;;;;4.00;2.58;;;;;;;;;;5060136;28;20439;-75
2023/09/11 02:09:55;;;;;;;5.30;2.85;;;;;;;;;;5062632;28;20538;-75
2023/09/11 02:12:26;;;;;;;5.50;2.47;;;;;;;;;;5062601;28;20055;-75
2023/09/11 02:14:56;;;;;;;8.70;3.50;;;;;;;;;;5061051;28;20423;-75
2023/09/11 02:17:27;;;;;;;7.03;2.85;;;;;;;;;;5062440;28;20785;-75
2023/09/11 02:19:58;;;;;;;6.25;2.90;;;;;;;;;;5062165;28;20407;-75
2023/09/11 02:22:29;;;;;;;7.32;2.50;;;;;;;;;;5062777;28;20051;-75
2023/09/11 02:24:59;;;;;;;6.47;2.90;;;;;;;;;;5062192;28;20427;-75
2023/09/11 02:27:30;;;;;;;5.63;3.13;;;;;;;;;;5062337;28;20053;-74
2023/09/11 02:29:59;;;;;;;5.82;2.70;;;;;;;;;;5062964;28;20051;-75
2023/09/11 02:32:32;;;;;;;8.98;3.15;;;;;;;;;;5061934;28;20500;-75
2023/09/11 02:35:02;;;;;;;8.23;2.88;;;;;;;;;;5062181;28;20041;-75
2023/09/11 02:37:33;;;;;;;7.32;2.90;;;;;;;;;;5061161;28;20052;-75
2023/09/11 02:40:04;;;;;;;5.95;2.58;;;;;;;;;;5062151;28;20057;-76
2023/09/11 02:42:35;;;;;;;4.22;2.60;;;;;;;;;;5061616;28;20057;-74
2023/09/11 02:45:07;;;;;;;6.20;2.83;;;;;;;;;;5061681;28;20542;-75
2023/09/11 02:47:37;;;;;;;6.07;2.67;;;;;;;;;;5060399;28;20444;-75
2023/09/11 02:50:07;;;;;;;5.78;3.28;;;;;;;;;;5062384;28;20423;-75
2023/09/11 02:52:38;;;;;;;5.10;2.60;;;;;;;;;;5061005;28;20079;-75
2023/09/11 02:55:11;;;;;;;10.77;2.90;;;;;;;;;;5059769;28;20051;-74
2023/09/11 02:57:42;;;;;;;4.78;3.03;;;;;;;;;;5061982;28;20562;-74
2023/09/11 03:00:12;;;;;;;8.43;3.05;;;;;;;;;;5061084;28;20056;-74
2023/09/11 03:02:43;;;;;;;11.52;3.05;;;;;;;;;;5061962;28;20060;-74
2023/09/11 03:05:14;;;;;;;7.38;3.40;;;;;;;;;;5061111;28;20869;-74
2023/09/11 03:07:45;;;;;;;4.70;2.63;;;;;;;;;;5059942;28;20056;-75
2023/09/11 03:10:15;;;;;;;10.82;2.70;;;;;;;;;;5062131;28;20047;-74
2023/09/11 03:12:46;;;;;;;7.35;2.40;;;;;;;;;;5059799;28;20053;-74
2023/09/11 03:15:16;;;;;;;7.85;2.70;;;;;;;;;;5059891;28;20490;-74
2023/09/11 03:17:50;;;;;;;11.50;2.78;;;;;;;;;;5059811;28;20055;-75
2023/09/11 03:20:21;;;;;;;5.00;2.75;;;;;;;;;;5061350;28;20055;-74
2023/09/11 03:22:52;;;;;;;8.48;2.65;;;;;;;;;;5059997;28;20048;-75
2023/09/11 03:25:26;;;;;;;7.03;2.20;;;;;;;;;;5059995;28;20590;-75
2023/09/11 03:27:56;;;;;;;11.18;2.80;;;;;;;;;;5061583;28;20474;-74
2023/09/11 03:30:27;;;;;;;6.72;2.30;;;;;;;;;;5060161;28;20056;-75
2023/09/11 03:32:58;;;;;;;7.95;3.03;;;;;;;;;;5059687;28;20040;-75
2023/09/11 03:35:29;;;;;;;6.22;2.50;;;;;;;;;;5061930;28;20059;-74
2023/09/11 03:38:01;;;;;;;3.45;2.13;;;;;;;;;;5062011;28;20043;-75
2023/09/11 03:40:31;;;;;;;4.53;2.50;;;;;;;;;;5059532;28;20138;-74
2023/09/11 03:43:02;;;;;;;4.65;2.55;;;;;;;;;;5061193;28;20488;-74
2023/09/11 03:45:33;;;;;;;6.72;2.45;;;;;;;;;;5060348;28;20056;-74
2023/09/11 03:48:04;;;;;;;5.95;2.45;;;;;;;;;;5059562;28;20044;-74
2023/09/11 03:50:36;;;;;;;5.00;2.53;;;;;;;;;;5059635;28;20056;-74
2023/09/11 03:53:06;;;;;;;7.20;2.53;;;;;;;;;;5059621;28;20045;-74
2023/09/11 03:55:37;;;;;;;6.88;2.97;;;;;;;;;;5059498;28;20059;-74
2023/09/11 03:58:08;;;;;;;10.02;2.58;;;;;;;;;;5061779;28;20534;-74
2023/09/11 04:00:38;;;;;;;6.80;2.63;;;;;;;;;;5059682;28;20056;-74
2023/09/11 04:03:08;;;;;;;8.63;2.42;;;;;;;;;;5061048;28;20071;-75
2023/09/11 04:05:39;;;;;;;9.18;2.80;;;;;;;;;;5061083;28;20052;-74
2023/09/11 04:08:10;;;;;;;4.20;2.08;;;;;;;;;;5062539;28;20395;-74
2023/09/11 04:10:41;;;;;;;7.07;2.58;;;;;;;;;;5064860;28;20048;-74
2023/09/11 04:13:16;;;;;;;5.85;2.40;;;;;;;;;;5065581;28;20051;-75
2023/09/11 04:15:46;;;;;;;5.00;2.33;;;;;;;;;;5065888;28;20396;-74
2023/09/11 04:18:17;;;;;;;8.82;2.50;;;;;;;;;;5063669;28;20515;-74
2023/09/11 04:20:49;;;;;;;3.65;2.40;;;;;;;;;;5062394;28;20394;-74
2023/09/11 04:23:20;;;;;;;4.47;2.85;;;;;;;;;;5062507;28;20064;-74
2023/09/11 04:25:54;;;;;;;5.70;2.75;;;;;;;;;;5062503;28;20052;-75
2023/09/11 04:28:25;;;;;;;10.98;2.63;;;;;;;;;;5062815;28;20048;-74
2023/09/11 04:30:56;;;;;;;5.57;2.63;;;;;;;;;;5046077;28;20056;-74
2023/09/11 04:33:30;;;;;;;4.13;2.95;;;;;;;;;;5062931;28;20558;-74
2023/09/11 04:36:00;;;;;;;8.25;2.78;;;;;;;;;;5063005;28;20056;-74
2023/09/11 04:38:30;;;;;;;4.40;2.50;;;;;;;;;;5062760;28;20425;-74
2023/09/11 04:41:02;;;;;;;5.20;2.40;;;;;;;;;;5062508;28;20063;-74
2023/09/11 04:43:32;;;;;;;5.05;2.20;;;;;;;;;;5061900;28;20542;-75
2023/09/11 04:46:02;;;;;;;6.88;2.85;;;;;;;;;;5064432;28;20071;-75
2023/09/11 04:48:33;;;;;;;3.83;2.30;;;;;;;;;;5062692;28;20063;-74
2023/09/11 04:51:03;;;;;;;8.80;2.70;;;;;;;;;;5062723;28;20052;-74
2023/09/11 04:53:34;;;;;;;5.32;2.47;;;;;;;;;;5063728;28;20048;-74
2023/09/11 04:56:05;;;;;;;10.95;2.88;;;;;;;;;;5062157;28;20051;-74
2023/09/11 04:58:35;;;;;;;9.88;2.60;;;;;;;;;;5064001;28;20060;-75
2023/09/11 05:01:05;;;;;;;9.02;2.50;;;;;;;;;;5063553;28;20682;-74
2023/09/11 05:03:38;;;;;;;7.13;2.85;;;;;;;;;;5062581;28;20056;-74
2023/09/11 05:06:09;;;;;;;6.95;3.15;;;;;;;;;;5046528;28;20063;-74
2023/09/11 05:08:39;;;;;;;7.53;2.83;;;;;;;;;;5063035;28;20051;-74
2023/09/11 05:11:31;;;;;;;7.50;3.30;;;;;;;;;;5062475;28;20174;-74
2023/09/11 05:14:02;;;;;;;6.43;3.15;;;;;;;;;;5062084;28;20420;-74
2023/09/11 05:16:33;;;;;;;4.55;2.97;;;;;;;;;;5063857;28;20123;-74
2023/09/11 05:19:03;;;;;;;6.88;2.95;;;;;;;;;;5062375;28;20044;-74
2023/09/11 05:21:36;;;;;;;8.25;3.20;;;;;;;;;;5061996;28;20063;-74
2023/09/11 05:24:07;;;;;;;9.88;3.00;;;;;;;;;;5062725;28;20414;-74
2023/09/11 05:26:38;;;;;;;8.07;3.10;;;;;;;;;;5062984;28;20053;-74
2023/09/11 05:29:08;;;;;;;6.65;3.33;;;;;;;;;;5063230;28;20048;-74
2023/09/11 05:31:39;;;;;;;14.00;3.28;;;;;;;;;;5063091;28;20045;-74
2023/09/11 05:34:09;;;;;;;7.70;3.60;;;;;;;;;;5062909;28;20072;-74
2023/09/11 05:36:41;;;;;;;9.68;3.72;;;;;;;;;;5063257;28;20431;-74
2023/09/11 05:39:11;;;;;;;5.95;3.40;;;;;;;;;;5061974;28;20063;-74
2023/09/11 05:41:42;;;;;;;4.40;3.10;;;;;;;;;;5060949;28;20056;-74
2023/09/11 05:44:13;;;;;;;10.05;3.55;;;;;;;;;;5062845;28;20051;-74
2023/09/11 05:46:43;;;;;;;7.13;3.22;;;;;;;;;;5063122;28;20052;-75
2023/09/11 05:49:13;;;;;;;7.45;3.58;;;;;;;;;;5062994;28;20045;-74
2023/09/11 05:51:43;;;;;;;6.28;3.13;;;;;;;;;;5063403;28;20423;-74
2023/09/11 05:54:14;;;;;;;8.95;3.47;;;;;;;;;;5063126;28;20051;-74
2023/09/11 05:56:45;;;;;;;10.45;3.72;;;;;;;;;;5063585;28;20040;-75
2023/09/11 05:59:18;;;;;;;11.85;4.00;;;;;;;;;;5063471;28;20756;-74
2023/09/11 06:01:49;;;;;;;7.32;3.58;;;;;;;;;;5060832;28;20538;-74
2023/09/11 06:04:19;;;;;;;4.70;3.10;;;;;;;;;;5062887;28;20044;-74
2023/09/11 06:06:51;;;;;;;9.30;3.05;;;;;;;;;;5062115;28;20044;-75
2023/09/11 06:09:22;;;;;;;6.40;3.53;;;;;;;;;;5062573;28;20063;-75
2023/09/11 06:11:52;;;;;;;14.90;3.78;;;;;;;;;;5062155;28;20059;-75
2023/09/11 06:14:23;;;;;;;6.60;3.47;;;;;;;;;;5062774;28;20048;-74
2023/09/11 06:17:03;;;;;;;6.80;3.10;;;;;;;;;;5061347;28;20499;-75
2023/09/11 06:19:33;;;;;;;8.98;3.75;;;;;;;;;;5062740;28;20380;-74
2023/09/11 06:22:03;;;;;;;12.15;4.20;;;;;;;;;;5061835;28;20074;-75
2023/09/11 06:24:33;;;;;;;10.32;3.40;;;;;;;;;;5060306;28;20045;-75
2023/09/11 06:27:09;;;;;;;7.03;3.70;;;;;;;;;;5062044;28;20063;-75
2023/09/11 06:29:40;;;;;;;5.35;3.60;;;;;;;;;;5061592;28;20047;-75
2023/09/11 06:32:15;;;;;;;6.20;3.95;;;;;;;;;;5062224;28;20071;-75
2023/09/11 06:34:45;;;;;;;6.85;4.60;;;;;;;;;;5062315;28;20044;-75
2023/09/11 06:37:15;;;;;;;8.98;4.32;;;;;;;;;;5062102;28;20083;-74
2023/09/11 06:39:46;;;;;;;10.80;5.22;;;;;;;;;;5060585;28;20055;-75
2023/09/11 06:42:23;;;;;;;9.18;4.07;;;;;;;;;;5061481;28;20052;-75
2023/09/11 06:44:54;;;;;;;9.05;4.65;;;;;;;;;;5062181;28;20404;-75
2023/09/11 06:47:25;;;;;;;8.77;4.47;;;;;;;;;;5062132;28;20491;-75
2023/09/11 06:49:55;;;;;;;11.48;4.38;;;;;;;;;;5061791;28;20044;-75
2023/09/11 06:52:25;;;;;;;7.60;4.07;;;;;;;;;;5061647;28;20048;-75
2023/09/11 06:54:56;;;;;;;12.77;4.40;;;;;;;;;;5061788;28;20056;-75
2023/09/11 06:57:27;;;;;;;5.75;4.10;;;;;;;;;;5061934;28;20053;-75
2023/09/11 06:59:58;;;;;;;8.10;4.45;;;;;;;;;;5062400;28;20610;-84
2023/09/11 07:02:28;;;;;;;6.78;4.35;;;;;;;;;;5061736;28;20052;-74
2023/09/11 07:04:59;;;;;;;6.10;4.63;;;;;;;;;;5061806;28;20048;-74
2023/09/11 07:07:29;;;;;;;7.00;4.60;;;;;;;;;;5059877;28;20048;-74
2023/09/11 07:10:00;;;;;;;9.75;4.22;;;;;;;;;;5061735;28;20051;-74
2023/09/11 07:12:29;;;;;;;7.32;4.20;;;;;;;;;;5060722;28;20040;-75
2023/09/11 07:15:00;;;;;;;9.07;4.18;;;;;;;;;;5058815;28;20419;-75
2023/09/11 07:17:31;;;;;;;8.45;4.30;;;;;;;;;;5059659;28;20055;-75
2023/09/11 07:20:06;;;;;;;9.15;4.25;;;;;;;;;;5059040;28;20052;-75
2023/09/11 07:22:36;;;;;;;9.77;4.55;;;;;;;;;;5057924;28;20048;-74
2023/09/11 07:25:11;;;;;;;8.40;4.47;;;;;;;;;;5059151;28;20060;-75
2023/09/11 07:27:41;;;;;;;;;;;;;;;;;;5059799;28;20534;-74
2023/09/11 07:30:12;;;;;;;10.20;4.45;;;;;;;;;;5058934;28;19925;-75
2023/09/11 07:32:44;;;;;;;8.98;4.38;;;;;;;;;;5059125;28;20063;-75
2023/09/11 07:35:17;;;;;;;8.00;4.60;;;;;;;;;;5058988;28;20203;-74
2023/09/11 07:37:49;;;;;;;7.25;5.00;;;;;;;;;;5059084;28;20068;-74
2023/09/11 07:40:20;;;;;;;12.13;4.97;;;;;;;;;;5058974;28;20049;-74
2023/09/11 07:42:52;;;;;;;8.13;4.50;;;;;;;;;;5062042;28;20052;-74
2023/09/11 07:45:23;;;;;;;9.38;5.13;;;;;;;;;;5061121;28;20049;-74
2023/09/11 07:47:55;;;;;;;7.57;5.10;;;;;;;;;;5062574;28;20510;-75
2023/09/11 07:50:28;;;;;;;7.47;4.50;;;;;;;;;;5062024;28;20040;-75
2023/09/11 07:52:59;;;;;;;8.35;4.60;;;;;;;;;;5060532;28;20048;-75
2023/09/11 07:55:29;;;;;;;10.95;4.78;;;;;;;;;;5061978;28;20045;-75
2023/09/11 07:58:00;;;;;;;7.78;4.78;;;;;;;;;;5062740;28;20053;-75
2023/09/11 08:00:32;;;;;;;7.68;4.20;;;;;;;;;;5062312;28;20059;-74
2023/09/11 08:03:03;;;;;;;9.25;4.40;;;;;;;;;;5062109;28;20055;-75
2023/09/11 08:05:34;;;;;;;7.63;4.22;;;;;;;;;;5060318;28;20056;-74
2023/09/11 08:08:06;;;;;;;7.32;4.65;;;;;;;;;;5062178;28;20048;-75
2023/09/11 08:10:38;;;;;;;8.95;4.43;;;;;;;;;;5061772;28;20416;-74
2023/09/11 08:13:08;;;;;;;8.00;4.43;;;;;;;;;;5061724;28;20067;-75
2023/09/11 08:15:39;;;;;;;9.85;4.07;;;;;;;;;;5061769;28;20389;-75
2023/09/11 08:18:11;;;;;;;9.10;4.97;;;;;;;;;;5060645;28;20036;-75
2023/09/11 08:20:45;;;;;;;7.95;5.20;;;;;;;;;;5062133;28;20103;-74
2023/09/11 08:23:16;;;;;;;9.80;4.82;;;;;;;;;;5061829;28;20071;-75
2023/09/11 08:25:47;;;;;;;15.10;4.93;;;;;;;;;;5060408;28;20064;-75
2023/09/11 08:28:18;;;;;;;12.18;4.53;;;;;;;;;;5061473;28;20613;-74
2023/09/11 08:30:52;;;;;;;13.80;4.72;;;;;;;;;;5061748;28;20052;-75
2023/09/11 08:33:25;;;;;;;7.65;4.68;;;;;;;;;;5061708;28;20052;-75
2023/09/11 08:36:09;;;;;;;7.47;5.00;;;;;;;;;;5061462;28;20507;-75
2023/09/11 08:38:44;;;;;;;7.03;5.03;;;;;;;;;;5061563;28;20052;-75
2023/09/11 08:41:19;;;;;;;9.32;4.75;;;;;;;;;;5061357;28;20517;-74
2023/09/11 08:43:51;;;;;;;6.93;4.80;;;;;;;;;;5061460;28;20048;-75
2023/09/11 08:46:23;;;;;;;10.02;4.43;;;;;;;;;;5061437;28;20404;-74
2023/09/11 08:49:00;;;;;;;8.48;4.88;;;;;;;;;;5061168;28;20052;-77
2023/09/11 08:51:42;;;;;;;8.38;4.95;;;;;;;;;;5061147;28;20044;-75
2023/09/11 08:54:16;;;;;;;7.55;5.05;;;;;;;;;;5060583;28;20535;-74
2023/09/11 08:56:48;;;;;;;8.15;5.32;;;;;;;;;;5062426;28;20044;-74
2023/09/11 08:59:22;;;;;;;10.05;4.88;;;;;;;;;;5061819;28;20051;-75
2023/09/11 09:01:55;;;;;;;10.65;4.60;;;;;;;;;;5061075;28;20052;-74
2023/09/11 09:04:28;;;;;;;9.43;5.28;;;;;;;;;;5060890;28;20044;-75
2023/09/11 09:06:59;;;;;;;9.32;4.70;;;;;;;;;;5060762;28;20059;-75
2023/09/11 09:09:32;;;;;;;11.00;4.93;;;;;;;;;;5061208;28;20040;-75
2023/09/11 09:12:05;;;;;;;7.72;5.05;;;;;;;;;;5059887;28;20053;-75
2023/09/11 09:14:39;;;;;;;8.82;4.53;;;;;;;;;;5061263;28;20066;-75
2023/09/11 09:17:10;;;;;;;13.65;5.40;;;;;;;;;;5060688;28;20036;-74
2023/09/11 09:19:42;;;;;;;14.30;6.13;;;;;;;;;;5060618;28;20048;-74
2023/09/11 09:22:13;;;;;;;16.58;5.75;;;;;;;;;;5061064;28;20044;-75
2023/09/11 09:24:55;;;;;;;7.82;5.38;;;;;;;;;;5059830;28;20052;-74
2023/09/11 09:27:30;;;;;;;11.63;5.90;;;;;;;;;;5060565;28;20055;-75
2023/09/11 09:30:01;;;;;;;;;;;;;;;;;;5060968;28;20045;-75
2023/09/11 09:32:34;;;;;;;9.80;5.63;;;;;;;;;;5060497;28;19931;-75
2023/09/11 09:35:07;;;;;;;10.93;6.05;;;;;;;;;;5059979;28;20052;-75
2023/09/11 09:37:38;;;;;;;12.63;6.78;;;;;;;;;;5060509;28;20039;-75
2023/09/11 09:40:10;;;;;;;9.65;5.78;;;;;;;;;;5059438;28;20060;-74
2023/09/11 09:42:41;;;;;;;11.15;5.50;;;;;;;;;;5060515;28;20052;-75
2023/09/11 09:45:29;;;;;;;10.23;6.18;;;;;;;;;;5060730;28;20052;-75
2023/09/11 09:48:17;;;;;;;16.15;6.53;;;;;;;;;;5060389;28;20512;-74
2023/09/11 09:50:51;;;;;;;12.02;6.32;;;;;;;;;;5060426;28;20048;-75
2023/09/11 09:53:32;;;;;;;9.65;6.15;;;;;;;;;;5060265;28;20055;-75
2023/09/11 09:56:10;;;;;;;11.48;6.20;;;;;;;;;;5059784;28;20049;-77
2023/09/11 09:58:44;;;;;;;11.95;6.50;;;;;;;;;;5060580;28;20044;-75
2023/09/11 10:01:22;;;;;;;11.80;6.63;;;;;;;;;;5060803;28;20052;-75
2023/09/11 10:03:54;;;;;;;12.75;6.20;;;;;;;;;;5061189;28;20049;-75
2023/09/11 10:06:27;;;;;;;10.23;6.47;;;;;;;;;;5080476;28;20044;-75
2023/09/11 10:09:19;;;;;;;11.80;6.72;;;;;;;;;;5081158;28;20788;-76
2023/09/11 10:11:52;;;;;;;10.70;6.50;;;;;;;;;;5080528;28;20759;-75
2023/09/11 10:14:24;;;;;;;10.75;7.20;;;;;;;;;;5078969;28;20067;-75
2023/09/11 10:17:01;;;;;;;11.23;6.70;;;;;;;;;;5079905;28;20498;-75
2023/09/11 10:19:33;;;;;;;12.43;7.30;;;;;;;;;;5079988;28;20048;-75
2023/09/11 10:22:05;;;;;;;14.55;7.10;;;;;;;;;;5079873;28;20054;-78
2023/09/11 10:24:36;;;;;;;10.18;6.82;;;;;;;;;;5079402;28;20055;-76
2023/09/11 10:27:07;;;;;;;9.90;6.97;;;;;;;;;;5079150;28;20063;-75
2023/09/11 10:30:00;;;;;;;10.05;6.25;;;;;;;;;;5077676;28;20534;-75
2023/09/11 10:32:57;;;;;;;13.50;6.63;;;;;;;;;;5079646;28;20091;-75
2023/09/11 10:35:31;;;;;;;10.38;6.55;;;;;;;;;;5077417;28;20522;-75
2023/09/11 10:38:03;;;;;;;10.77;6.82;;;;;;;;;;5079597;28;20048;-75
2023/09/11 10:40:37;;;;;;;12.43;6.90;;;;;;;;;;5079429;28;20048;-76
2023/09/11 10:43:09;;;;;;;9.20;6.03;;;;;;;;;;5077575;28;20067;-75
2023/09/11 10:45:42;;;;;;;9.50;6.65;;;;;;;;;;5079240;28;20044;-75
2023/09/11 10:48:30;;;;;;;10.95;6.28;;;;;;;;;;5079331;28;20047;-75
2023/09/11 10:51:01;;;;;;;10.10;5.88;;;;;;;;;;5080009;28;20426;-75
2023/09/11 10:53:33;;;;;;;9.00;5.93;;;;;;;;;;5079464;28;20044;-76
2023/09/11 10:56:05;;;;;;;7.85;5.60;;;;;;;;;;5079850;28;20040;-76
2023/09/11 10:58:38;;;;;;;10.70;6.35;;;;;;;;;;5077370;28;20052;-77
2023/09/11 11:01:12;;;;;;;13.93;5.30;;;;;;;;;;5079154;28;20513;-75
2023/09/11 11:03:45;;;;;;;8.77;5.15;;;;;;;;;;5061218;28;20059;-75
2023/09/11 11:06:21;;;;;;;7.63;5.13;;;;;;;;;;5079219;28;20044;-75
2023/09/11 11:08:53;;;;;;;6.93;5.07;;;;;;;;;;5061590;28;20063;-75
2023/09/11 11:11:30;;;;;;;8.35;4.85;;;;;;;;;;5079713;28;20063;-77
2023/09/11 11:14:21;;;;;;;9.02;4.90;;;;;;;;;;5077687;28;20519;-75
2023/09/11 11:16:55;;;;;;;6.57;4.85;;;;;;;;;;5082155;28;20052;-75
2023/09/11 11:19:29;;;;;;;6.68;4.85;;;;;;;;;;5082716;28;20429;-75
2023/09/11 11:22:01;;;;;;;12.57;5.18;;;;;;;;;;5082574;28;20048;-75
2023/09/11 11:24:35;;;;;;;6.43;4.45;;;;;;;;;;5082847;28;20074;-73
2023/09/11 11:27:09;;;;;;;7.50;4.60;;;;;;;;;;5083182;28;20048;-73
2023/09/11 11:29:42;;;;;;;6.72;4.72;;;;;;;;;;5082793;28;20052;-73
2023/09/11 11:32:13;;;;;;;6.18;4.65;;;;;;;;;;5083230;28;20043;-78
2023/09/11 11:34:47;;;;;;;7.68;4.00;;;;;;;;;;5082767;28;20040;-75
2023/09/11 11:37:21;;;;;;;20.38;5.82;;;;;;;;;;5082806;28;20047;-75
2023/09/11 11:39:53;;;;;;;8.88;4.85;;;;;;;;;;5082135;28;20059;-75
2023/09/11 11:42:24;;;;;;;25.00;5.93;;;;;;;;;;5082556;28;20098;-75
2023/09/11 11:44:55;;;;;;;8.07;5.47;;;;;;;;;;5082905;28;20513;-76
2023/09/11 11:47:27;;;;;;;5.90;4.10;;;;;;;;;;5082538;28;20047;-75
2023/09/11 11:50:10;;;;;;;13.02;5.85;;;;;;;;;;5081727;28;20063;-75
2023/09/11 11:52:46;;;;;;;4.43;3.92;;;;;;;;;;5082549;28;20067;-76
2023/09/11 11:55:26;;;;;;;10.00;4.55;;;;;;;;;;5082206;28;20052;-75
2023/09/11 11:57:57;;;;;;;11.38;4.45;;;;;;;;;;5082902;28;20052;-75
2023/09/11 12:00:28;;;;;;;11.25;5.22;;;;;;;;;;5083108;28;20044;-84
2023/09/11 12:03:08;;;;;;;9.18;4.63;;;;;;;;;;5082733;28;20044;-75
2023/09/11 12:05:43;;;;;;;;;;;;;;;;;;5083035;28;20047;-75
2023/09/11 12:08:16;;;;;;;7.85;4.63;;;;;;;;;;5082597;28;19924;-77
2023/09/11 12:10:51;;;;;;;6.13;4.63;;;;;;;;;;5063928;28;20541;-74
2023/09/11 12:13:24;;;;;;;10.30;4.53;;;;;;;;;;5081691;28;20783;-74
2023/09/11 12:16:15;;;;;;;10.02;3.90;;;;;;;;;;5082134;28;20048;-73
2023/09/11 12:18:47;;;;;;;7.95;4.43;;;;;;;;;;5081912;28;20044;-73
2023/09/11 12:21:18;;;;;;;6.75;4.53;;;;;;;;;;5082113;28;20043;-73
2023/09/11 12:23:48;;;;;;;7.57;3.95;;;;;;;;;;5082127;28;20059;-73
2023/09/11 12:26:20;;;;;;;7.88;4.65;;;;;;;;;;5082039;28;20051;-74
2023/09/11 12:28:53;;;;;;;10.80;4.43;;;;;;;;;;5082125;28;20874;-73
2023/09/11 12:31:24;;;;;;;8.48;4.55;;;;;;;;;;5085383;28;21203;-74
2023/09/11 12:34:00;;;;;;;5.88;4.28;;;;;;;;;;5081424;28;20048;-73
2023/09/11 12:36:31;;;;;;;9.02;4.18;;;;;;;;;;5082242;28;20506;-73
2023/09/11 12:39:07;;;;;;;6.07;4.43;;;;;;;;;;5081940;28;20055;-73
2023/09/11 12:41:39;;;;;;;6.18;4.18;;;;;;;;;;5081942;28;20052;-73
2023/09/11 12:44:09;;;;;;;7.20;4.20;;;;;;;;;;5081375;28;20047;-73
2023/09/11 12:46:41;;;;;;;5.20;4.07;;;;;;;;;;5081949;28;20048;-75
2023/09/11 12:49:12;;;;;;;6.32;4.47;;;;;;;;;;5081693;28;20059;-75
2023/09/11 12:51:43;;;;;;;9.45;4.38;;;;;;;;;;5081214;28;20048;-75
2023/09/11 12:54:14;;;;;;;9.93;5.05;;;;;;;;;;5080533;28;20510;-76
2023/09/11 12:56:46;;;;;;;5.53;4.18;;;;;;;;;;5081062;28;20047;-75
2023/09/11 12:59:18;;;;;;;10.63;5.63;;;;;;;;;;5080484;28;20743;-75
2023/09/11 13:01:59;;;;;;;7.88;4.57;;;;;;;;;;5081918;28;20044;-75
2023/09/11 13:04:30;;;;;;;6.25;4.32;;;;;;;;;;5081112;28;20117;-76
2023/09/11 13:07:03;;;;;;;7.00;5.00;;;;;;;;;;5081255;28;20048;-75
2023/09/11 13:09:36;;;;;;;5.15;3.78;;;;;;;;;;5081334;28;20048;-75
2023/09/11 13:12:09;;;;;;;7.22;4.45;;;;;;;;;;5081268;28;20076;-75
2023/09/11 13:14:40;;;;;;;5.38;4.60;;;;;;;;;;5079680;28;20403;-75
2023/09/11 13:17:12;;;;;;;7.03;4.68;;;;;;;;;;5081264;28;20044;-77
2023/09/11 13:19:43;;;;;;;7.22;4.70;;;;;;;;;;5081447;28;20052;-75
2023/09/11 13:22:15;;;;;;;5.68;4.50;;;;;;;;;;5080804;28;20055;-76
2023/09/11 13:24:45;;;;;;;7.75;4.43;;;;;;;;;;5080925;28;20530;-79
2023/09/11 13:27:17;;;;;;;7.40;4.53;;;;;;;;;;5081043;28;20392;-73
2023/09/11 13:29:48;;;;;;;10.13;6.28;;;;;;;;;;5080842;28;20044;-73
2023/09/11 13:32:20;;;;;;;8.93;5.22;;;;;;;;;;5080668;28;20054;-75
2023/09/11 13:34:50;;;;;;;6.30;4.75;;;;;;;;;;5080199;28;20251;-76
2023/09/11 13:37:22;;;;;;;12.27;5.68;;;;;;;;;;5081401;28;20048;-73
2023/09/11 13:39:54;;;;;;;6.55;4.55;;;;;;;;;;5080103;28;20043;-73
2023/09/11 13:42:25;;;;;;;7.55;4.53;;;;;;;;;;5081320;28;20051;-74
2023/09/11 13:44:56;;;;;;;9.10;5.82;;;;;;;;;;5081581;28;20047;-75
2023/09/11 13:47:28;;;;;;;7.13;4.97;;;;;;;;;;5079643;28;20529;-75
2023/09/11 13:50:02;;;;;;;5.78;4.80;;;;;;;;;;5079574;28;20087;-75
2023/09/11 13:52:33;;;;;;;6.75;5.05;;;;;;;;;;5080554;28;20574;-80
2023/09/11 13:55:04;;;;;;;7.32;4.20;;;;;;;;;;5080224;28;20422;-75
2023/09/11 13:57:36;;;;;;;10.77;6.40;;;;;;;;;;5079718;28;20463;-75
2023/09/11 14:00:08;;;;;;;7.43;4.90;;;;;;;;;;5081053;28;20040;-80
2023/09/11 14:02:42;;;;;;;6.15;5.22;;;;;;;;;;5080153;28;20051;-75
2023/09/11 14:05:13;;;;;;;6.78;5.05;;;;;;;;;;5079690;28;20047;-75
2023/09/11 14:07:44;;;;;;;6.63;5.30;;;;;;;;;;5080134;28;20519;-75
2023/09/11 14:10:15;;;;;;;6.53;5.25;;;;;;;;;;5080133;28;20051;-75
2023/09/11 14:12:46;;;;;;;8.90;5.30;;;;;;;;;;5080368;28;20763;-74
2023/09/11 14:15:17;;;;;;;7.25;5.25;;;;;;;;;;5079987;28;20044;-80
2023/09/11 14:17:48;;;;;;;15.63;4.47;;;;;;;;;;5078485;28;20422;-74
2023/09/11 14:20:21;;;;;;;8.30;4.45;;;;;;;;;;5079635;28;20059;-74
2023/09/11 14:22:52;;;;;;;7.22;5.40;;;;;;;;;;5080041;28;20322;-74
2023/09/11 14:25:22;;;;;;;6.82;5.20;;;;;;;;;;5077874;28;20048;-74
2023/09/11 14:27:54;;;;;;;8.77;4.95;;;;;;;;;;5079786;28;20052;-74
2023/09/11 14:30:25;;;;;;;7.60;5.18;;;;;;;;;;5079302;28;20052;-75
2023/09/11 14:32:57;;;;;;;7.13;5.28;;;;;;;;;;5079350;28;20515;-74
2023/09/11 14:35:28;;;;;;;8.10;5.20;;;;;;;;;;5079726;28;20044;-74
2023/09/11 14:38:00;;;;;;;7.32;5.43;;;;;;;;;;5061576;28;20052;-79
2023/09/11 14:40:32;;;;;;;7.43;5.22;;;;;;;;;;5080084;28;20051;-74
2023/09/11 14:43:03;;;;;;;7.97;5.32;;;;;;;;;;5079868;28;20048;-74
2023/09/11 14:45:34;;;;;;;9.25;5.22;;;;;;;;;;5079027;28;20048;-76
2023/09/11 14:48:05;;;;;;;6.97;5.13;;;;;;;;;;5079721;28;20059;-74
2023/09/11 14:50:37;;;;;;;9.43;6.00;;;;;;;;;;5079595;28;20047;-74
2023/09/11 14:53:07;;;;;;;7.75;5.72;;;;;;;;;;5079463;28;20040;-74
2023/09/11 14:55:38;;;;;;;15.02;8.95;;;;;;;;;;5079502;28;21098;-74
2023/09/11 14:58:09;;;;;;;12.18;6.40;;;;;;;;;;5079017;28;20056;-74
2023/09/11 15:00:41;;;;;;;7.28;5.68;;;;;;;;;;5077508;28;20059;-74
2023/09/11 15:03:12;;;;;;;8.60;5.90;;;;;;;;;;5079257;28;20051;-76
2023/09/11 15:05:43;;;;;;;11.15;5.30;;;;;;;;;;5079121;28;20051;-74
2023/09/11 15:08:14;;;;;;;8.63;5.47;;;;;;;;;;5078448;28;20048;-77
2023/09/11 15:10:47;;;;;;;6.53;5.82;;;;;;;;;;5078905;28;20055;-74
2023/09/11 15:13:18;;;;;;;7.53;5.63;;;;;;;;;;5079138;28;20052;-74